Mont Farlagne Invitational - GS
Results

U 14; U16; U18 GS

Jury
TD MCLEAN DAWN CAN
Referee LEGER MICHELE CAN
Chief of Race LEVESQUE PAUL CAN
Other Workers
Start Ref PRICE BRIAN CAN
Finish Ref MCGEE PETER CAN
Race Admin GAGNE DANIELLE CAN
Chief of Timing AUCOIN C.DUGUAY E. CAN
Technical Data
Course Name
Start 320
Finish 150
Vertical Drop
Length
Homologation 2912-115-F121A
1st Run 2nd run
Course Setter MOLE JORDAN CAN DOWNING ERIN CAN
Number of Gates 25/25 26/25
Homologation 2912-115-F121A
Forerunner 1 BOIS MICHEL CAN ROY JOSH CAN
Forerunner 2 ROY JOSH CAN ROY WILL CAN
Forerunner 3 ROY WILL CAN Dunphy Malcom CAN
Forerunner 4

Applied Penality: 257.55

Weather: EXTREMELY COLD

Snow:HARD PACK

Temperature Start: -24 Temperature Finish: -23

F:980

Rank Card Bib Name Club YOB Category 1st Run 2nd run Total Time Points
1 70014 38 TODD Emily WSRC 02 U16 41.43 42.05 1:23.48 0
2 71482 45 BOSSE Jolaine FRLGN 01 U18 42.36 42.73 1:25.09 18.9
3 80168 42 DOUGLAS Elizabeth PEI 01 U18 42.26 42.94 1:25.20 20.19
4 80167 43 DOUGLAS Katherine PEI 03 U16 42.70 42.74 1:25.44 23.01
5 80160 41 CUDMORE Macy PEI 03 U16 42.09 43.55 1:25.64 25.36
6 70330 50 HICKEY Paige MARBL 02 U16 43.54 43.11 1:26.65 37.21
7 80161 53 PETERSON Sophie PEI 03 U16 43.43 43.25 1:26.68 37.57
8 71499 37 MCLEAN Elizabeth POLEY 04 U14 42.73 44.41 1:27.14 42.97
9 71539 47 HARMON Jessica WSRC 02 U16 43.55 43.69 1:27.24 44.14
10 67317 56 GILLIS Elsie MSRC 03 U16 44.41 44.04 1:28.45 58.34
11 73565 49 TZANETEAS Eliana MSRC 01 U18 44.03 45.01 1:29.04 65.27
12 70582 44 BOSSHARD Gabrielle POLEY 01 U18 44.50 44.60 1:29.10 65.98
13 73492 59 HENDERSON Isabelle WSRC 03 U16 45.00 45.29 1:30.29 79.94
14 108060 52 DUNPHY Kyra POLEY 00 U18 45.56 44.87 1:30.43 81.59
15 77022 54 LAPLANTE Chloe FRLGN 04 U14 46.15 44.62 1:30.77 85.58
16 73325 58 HIEW Sophia POLEY 02 U16 44.37 46.51 1:30.88 86.87
17 79391 51 CUDMORE Makena PEI 01 U18 45.04 45.88 1:30.92 87.34
18 79311 66 PACE Victoria WSRC 04 U14 45.61 45.40 1:31.01 88.4
19 77040 57 STOREY Abby CRAB 04 U14 44.95 46.28 1:31.23 90.98
20 79644 63 MITTON Azlyn CRAB 04 U14 45.60 46.16 1:31.76 97.2
21 70587 48 DE YTURRALDE Jasmine POLEY 01 U18 45.41 46.67 1:32.08 100.96
22 73653 68 DAVIS Rachel MARBL 02 U16 46.13 46.72 1:32.85 110
23 73366 62 FAULKNER Jenna WSRC 03 U16 45.86 47.07 1:32.93 110.94
24 79309 88 HATFIELD Delaney WSRC 04 U14 46.78 46.48 1:33.26 114.81
25 85510 84 OAKLEY Lily WSRC 05 U14 46.16 47.11 1:33.27 114.93
26 78637 60 PRICE Lauren CRAB 02 U16 46.92 47.20 1:34.12 124.91
27 77042 67 WHITE Jessica CRAB 04 U14 46.41 47.77 1:34.18 125.61
28 72837 65 MACNEIL Madeline POLEY 04 U14 46.67 47.78 1:34.45 128.78
29 77669 64 PIKE Madeleine POLEY 03 U16 46.74 47.90 1:34.64 131.01
30 81622 78 PARSONS Severn WSRC 05 U14 47.07 47.88 1:34.95 134.65
31 77041 85 TRITES Nicole CRAB 05 U14 46.71 48.45 1:35.16 137.12
32 77568 70 PROSSER Michaela POLEY 04 U14 47.30 48.28 1:35.58 142.05
33 77676 79 SKULSKY Sophia POLEY 05 U14 47.42 48.31 1:35.73 143.81
34 70586 61 DAIGLE Ella POLEY 01 U18 47.12 48.77 1:35.89 145.69
35 81609 87 MCNALLY Laura POLEY 05 U14 48.04 48.22 1:36.26 150.03
36 77012 71 OULTON Carmen MSRC 04 U14 47.47 49.09 1:36.56 153.55
37 73370 82 GODDARD Lucy MSRC 05 U14 49.06 50.27 1:39.33 186.07
38 84466 69 KEEDWELL Hilary PEI 03 U16 48.70 51.17 1:39.87 192.41
39 78636 72 PRICE Carolyn CRAB 04 U14 49.13 50.79 1:39.92 192.99
40 73333 73 RICE-WELLMAN Alexandra FRLGN 01 U18 50.02 51.04 1:41.06 206.38
41 74415 80 DAYA Cadence WSRC 04 U14 50.94 50.28 1:41.22 208.26
42 77657 77 BELYEA Hayley POLEY 05 U14 50.21 51.44 1:41.65 213.3
43 82350 75 FORGET Melanie MSRC 05 U14 52.53 52.93 1:45.46 258.03
999 70557 46 MACLEOD Cameron PEI 00 U18 DNS 0
999 88733 86 SIROIS Mallory FRLGN 04 U14 DNS 0
999 82108 76 KALEY Hannah CRAB 05 U14 DNS 0
999 74429 40 STIENBURG Lauren WSRC 01 U18 DNF 45.39 0
999 88149 83 SIROIS Elly FRLGN 04 U14 DNF 49.40 0
999 85507 81 CHILDS Kate WSRC 05 U14 DNF 46.54 0
999 77026 74 AUCOIN Kamille FRLGN 05 U14 47.30 DNS 0
999 78634 55 MCCAIN Kaitlyn CRAB 02 U16 44.56 DNF 0
07/01/2018 / Mont Farlagne, N.B. / NAT18.5182
© MECTiming All Rights Reserverd 2018